Time;durP1;ratioP1;P1;durP2;ratioP2;P2;SDS_P1;SDS_P2;PMS_P1;PMS_P2;Temp;Humidity;BMP_temperature;BMP_pressure;BME280_temperature;BME280_humidity;BME280_pressure;Samples;Min_cycle;Max_cycle;Signal;HPM_P1;HPM_P2
2023/05/21 00:01:15;;;;;;;12.57;7.40;;;15.40;99.90;;;15.56;73.22;94842.41;5078098;28;20846;-61
2023/05/21 00:03:44;;;;;;;13.23;7.80;;;15.30;99.90;;;15.53;73.19;94842.75;5073867;28;20451;-71
2023/05/21 00:06:14;;;;;;;7.63;6.80;;;15.30;99.90;;;15.50;72.78;94843.09;5079570;28;20492;-72
2023/05/21 00:08:42;;;;;;;15.50;7.70;;;15.30;99.90;;;15.46;72.79;94839.16;5077728;28;20517;-63
2023/05/21 00:11:09;;;;;;;7.93;7.10;;;15.20;99.90;;;15.45;73.01;94839.31;5079187;28;20547;-62
2023/05/21 00:13:37;;;;;;;9.87;7.17;;;15.20;99.90;;;15.40;72.78;94839.84;5072744;28;20539;-71
2023/05/21 00:16:07;;;;;;;10.30;7.63;;;15.20;99.90;;;15.35;72.91;94829.75;5075094;28;20506;-62
2023/05/21 00:18:34;;;;;;;9.67;7.47;;;15.10;99.90;;;15.33;72.65;94826.41;5074694;28;20451;-62
2023/05/21 00:21:01;;;;;;;9.37;7.00;;;15.10;99.90;;;15.29;72.87;94833.06;5075182;28;20486;-71
2023/05/21 00:23:31;;;;;;;9.50;6.77;;;15.10;99.90;;;15.24;72.63;94832.75;5070408;28;20450;-62
2023/05/21 00:25:58;;;;;;;9.00;6.67;;;15.00;99.90;;;15.19;72.72;94832.44;5075071;28;20531;-70
2023/05/21 00:28:26;;;;;;;9.77;7.00;;;15.00;99.90;;;15.15;72.73;94828.44;5072436;28;20477;-62
2023/05/21 00:30:53;;;;;;;9.97;7.33;;;14.90;99.90;;;15.11;72.83;94825.31;5071567;28;20530;-73
2023/05/21 00:33:25;;;;;;;9.80;6.43;;;14.90;99.90;;;15.10;73.00;94833.44;5071767;28;20454;-64
2023/05/21 00:35:52;;;;;;;7.83;6.50;;;14.90;99.90;;;15.05;72.95;94826.81;5070296;28;20483;-69
2023/05/21 00:38:20;;;;;;;7.70;6.57;;;14.80;99.90;;;15.03;72.91;94833.28;5073437;28;20450;-72
2023/05/21 00:40:48;;;;;;;14.47;6.30;;;14.80;99.90;;;14.99;73.00;94827.50;5074106;28;20455;-72
2023/05/21 00:43:15;;;;;;;8.80;6.93;;;14.80;99.90;;;14.97;72.79;94821.53;5074641;28;21084;-63
2023/05/21 00:45:43;;;;;;;8.20;5.77;;;14.70;99.90;;;14.94;73.11;94821.88;5072130;28;20888;-63
2023/05/21 00:48:10;;;;;;;8.47;5.80;;;14.70;99.90;;;14.91;72.68;94810.81;5073107;28;20450;-63
2023/05/21 00:50:39;;;;;;;7.47;6.10;;;14.70;99.90;;;14.89;72.79;94818.91;5072589;28;20995;-71
2023/05/21 00:53:08;;;;;;;7.67;6.87;;;14.70;99.90;;;14.85;72.98;94807.81;5077558;28;20942;-60
2023/05/21 00:55:36;;;;;;;7.70;6.43;;;14.60;99.90;;;14.84;73.05;94811.47;5073672;28;20462;-63
2023/05/21 00:58:03;;;;;;;10.97;6.67;;;14.60;99.90;;;14.82;73.17;94807.31;5076603;28;20528;-62
2023/05/21 01:00:32;;;;;;;8.47;5.70;;;14.60;99.90;;;14.79;73.28;94813.78;5071726;28;21133;-71
2023/05/21 01:02:59;;;;;;;13.83;6.90;;;14.60;99.90;;;14.78;73.02;94811.28;5075879;28;20779;-71
2023/05/21 01:05:27;;;;;;;8.60;6.13;;;14.50;99.90;;;14.76;73.15;94811.47;5073602;28;20448;-71
2023/05/21 01:07:56;;;;;;;7.70;6.80;;;14.60;99.90;;;14.74;73.15;94810.81;5077430;28;20478;-62
2023/05/21 01:10:24;;;;;;;21.33;7.20;;;14.50;99.90;;;14.74;73.24;94805.50;5075619;28;20487;-62
2023/05/21 01:12:51;;;;;;;9.33;6.53;;;14.50;99.90;;;14.73;73.29;94803.03;5074287;28;20974;-61
2023/05/21 01:15:18;;;;;;;8.57;6.17;;;14.50;99.90;;;14.72;73.36;94812.81;5073782;28;20459;-62
2023/05/21 01:17:47;;;;;;;7.37;6.57;;;14.50;99.90;;;14.72;73.30;94806.66;5076482;28;21067;-62
2023/05/21 01:20:17;;;;;;;9.10;6.30;;;14.50;99.90;;;14.70;73.32;94805.03;5072227;28;20893;-71
2023/05/21 01:22:52;;;;;;;13.60;6.07;;;14.40;99.90;;;14.69;73.63;94807.84;5070784;28;20477;-72
2023/05/21 01:25:20;;;;;;;8.80;5.50;;;14.50;99.90;;;14.66;73.63;94801.06;5076100;28;20457;-69
2023/05/21 01:27:47;;;;;;;6.80;6.13;;;14.50;99.90;;;14.66;73.90;94795.75;5070951;28;20483;-61
2023/05/21 01:30:15;;;;;;;7.60;5.60;;;14.40;99.90;;;14.65;73.62;94803.88;5075988;28;20465;-72
2023/05/21 01:32:47;;;;;;;6.93;6.23;;;14.40;99.90;;;14.63;73.83;94796.09;5072743;28;20566;-71
2023/05/21 01:35:20;;;;;;;13.20;7.17;;;14.40;99.90;;;14.62;73.74;94794.44;5071625;28;20449;-62
2023/05/21 01:37:54;;;;;;;14.03;7.50;;;14.40;99.90;;;14.62;73.64;94790.97;5068185;28;20544;-62
2023/05/21 01:40:25;;;;;;;12.07;5.87;;;14.40;99.90;;;14.61;73.82;94792.78;5076282;28;20438;-72
2023/05/21 01:42:52;;;;;;;7.17;5.80;;;14.40;99.90;;;14.59;73.74;94801.84;5071267;28;20481;-70
2023/05/21 01:45:19;;;;;;;10.30;5.90;;;14.40;99.90;;;14.57;73.90;94796.72;5073341;28;20462;-72
2023/05/21 01:47:48;;;;;;;7.33;6.17;;;14.30;99.90;;;14.58;74.05;94797.53;5074007;28;20475;-62
2023/05/21 01:50:15;;;;;;;6.50;5.90;;;14.30;99.90;;;14.55;73.99;94787.28;5072346;28;20958;-62
2023/05/21 01:52:51;;;;;;;6.33;5.63;;;14.40;99.90;;;14.56;73.91;94787.13;5074550;28;20470;-70
2023/05/21 01:55:23;;;;;;;8.33;5.50;;;14.30;99.90;;;14.57;73.51;94791.44;5074910;28;20438;-72
2023/05/21 01:57:51;;;;;;;13.53;6.97;;;14.30;99.90;;;14.56;73.79;94787.13;5070136;28;20523;-63
2023/05/21 02:00:19;;;;;;;11.17;5.70;;;14.40;99.90;;;14.55;73.86;94782.84;5074520;28;20447;-70
2023/05/21 02:02:46;;;;;;;9.13;5.33;;;14.30;99.90;;;14.54;73.95;94783.81;5071373;28;20592;-63
2023/05/21 02:05:13;;;;;;;7.13;5.63;;;14.30;99.90;;;14.56;73.89;94781.00;5070063;28;20463;-69
2023/05/21 02:07:42;;;;;;;6.43;5.30;;;14.30;99.90;;;14.54;73.88;94783.81;5075616;28;21077;-70
2023/05/21 02:10:11;;;;;;;17.23;5.63;;;14.30;99.90;;;14.53;73.86;94776.88;5071504;28;20543;-61
2023/05/21 02:12:39;;;;;;;6.47;5.23;;;14.30;99.90;;;14.52;74.13;94778.69;5077311;28;20470;-69
2023/05/21 02:15:07;;;;;;;6.80;6.13;;;14.30;99.90;;;14.50;74.45;94775.41;5073177;28;20451;-70
2023/05/21 02:17:36;;;;;;;9.70;6.47;;;14.30;99.90;;;14.49;74.02;94768.44;5077640;28;20494;-70
2023/05/21 02:20:10;;;;;;;6.80;5.43;;;14.30;99.90;;;14.48;74.20;94774.75;5067444;28;20446;-63
2023/05/21 02:22:38;;;;;;;8.83;6.07;;;14.30;99.90;;;14.46;73.73;94781.19;5071880;28;20467;-71
2023/05/21 02:25:07;;;;;;;11.00;5.97;;;14.20;99.90;;;14.42;73.92;94785.16;5073012;28;20455;-60
2023/05/21 02:27:36;;;;;;;11.93;5.73;;;14.20;99.90;;;14.38;73.78;94783.84;5075326;28;20573;-71
2023/05/21 02:30:04;;;;;;;7.90;5.53;;;14.20;99.90;;;14.33;73.94;94779.88;5070606;28;20451;-71
2023/05/21 02:32:32;;;;;;;18.73;6.60;;;14.10;99.90;;;14.31;73.83;94773.91;5078730;28;20506;-62
2023/05/21 02:35:00;;;;;;;11.90;5.70;;;14.10;99.90;;;14.29;74.08;94775.06;5070439;28;20856;-70
2023/05/21 02:37:27;;;;;;;6.73;6.07;;;14.10;99.90;;;14.26;73.89;94778.84;5072862;28;20502;-61
2023/05/21 02:39:55;;;;;;;8.50;7.50;;;14.10;99.90;;;14.22;74.12;94772.25;5076388;28;20456;-70
2023/05/21 02:42:23;;;;;;;11.73;6.73;;;14.00;99.90;;;14.17;73.79;94774.56;5071806;28;20475;-71
2023/05/21 02:44:54;;;;;;;12.73;7.07;;;14.00;99.90;;;14.13;73.91;94774.06;5082038;28;20533;-64
2023/05/21 02:47:24;;;;;;;7.70;6.20;;;13.90;99.90;;;14.10;74.32;94771.75;5073186;28;20548;-63
2023/05/21 02:49:52;;;;;;;14.17;6.33;;;13.90;99.90;;;14.07;74.01;94768.63;5075544;28;20455;-71
2023/05/21 02:52:20;;;;;;;7.53;6.80;;;13.90;99.90;;;14.07;74.34;94758.03;5080656;28;20566;-61
2023/05/21 02:54:48;;;;;;;15.80;6.80;;;13.90;99.90;;;14.05;74.25;94766.13;5078037;28;20540;-61
2023/05/21 02:57:17;;;;;;;13.80;6.90;;;13.80;99.90;;;14.04;74.26;94766.28;5074903;28;20490;-62
2023/05/21 02:59:44;;;;;;;10.47;6.60;;;13.80;99.90;;;14.03;74.59;94759.34;5071830;28;20831;-72
2023/05/21 03:02:13;;;;;;;12.27;7.07;;;13.80;99.90;;;14.02;74.59;94765.63;5075677;28;20577;-63
2023/05/21 03:04:45;;;;;;;8.67;7.77;;;13.80;99.90;;;13.97;74.77;94772.25;5077739;28;20970;-61
2023/05/21 03:07:12;;;;;;;11.20;7.17;;;13.80;99.90;;;13.95;74.34;94768.09;5075584;28;20979;-62
2023/05/21 03:09:40;;;;;;;7.70;6.50;;;13.80;99.90;;;13.89;74.39;94771.38;5077716;28;20453;-70
2023/05/21 03:12:08;;;;;;;7.70;6.53;;;13.70;99.90;;;13.83;74.72;94775.50;5072320;28;20910;-71
2023/05/21 03:14:35;;;;;;;14.10;7.37;;;13.60;99.90;;;13.79;74.57;94774.19;5080218;28;20465;-62
2023/05/21 03:17:04;;;;;;;11.27;6.93;;;13.60;99.90;;;13.75;74.93;94788.72;5075825;28;20494;-71
2023/05/21 03:19:34;;;;;;;11.57;7.10;;;13.50;99.90;;;13.72;74.16;94786.38;5076392;28;20508;-70
2023/05/21 03:22:02;;;;;;;10.63;6.70;;;13.50;99.90;;;13.68;74.66;94782.41;5077278;28;20554;-72
2023/05/21 03:24:30;;;;;;;17.43;6.77;;;13.50;99.90;;;13.70;74.98;94785.72;5080740;28;20974;-61
2023/05/21 03:26:58;;;;;;;10.67;5.80;;;13.50;99.90;;;13.71;74.70;94782.06;5076113;28;20477;-70
2023/05/21 03:29:25;;;;;;;7.10;6.37;;;13.50;99.90;;;13.72;74.73;94783.75;5079195;28;20838;-68
2023/05/21 03:31:53;;;;;;;12.70;6.47;;;13.50;99.90;;;13.75;74.95;94786.88;5074907;28;21037;-62
2023/05/21 03:34:21;;;;;;;10.27;6.47;;;13.50;99.90;;;13.78;74.63;94791.03;5073478;28;20542;-71
2023/05/21 03:36:49;;;;;;;7.23;6.23;;;13.60;99.90;;;13.81;74.72;94798.63;5076804;28;20495;-62
2023/05/21 03:39:17;;;;;;;11.10;6.20;;;13.60;99.90;;;13.85;74.60;94784.13;5074143;28;21044;-71
2023/05/21 03:41:44;;;;;;;8.23;7.43;;;13.60;99.90;;;13.88;74.80;94786.44;5074013;28;20482;-63
2023/05/21 03:44:12;;;;;;;7.70;6.20;;;13.70;99.90;;;13.93;74.68;94783.31;5075759;28;20462;-62
2023/05/21 03:46:39;;;;;;;11.17;8.30;;;13.70;99.90;;;13.96;75.04;94786.44;5074260;28;20478;-71
2023/05/21 03:49:06;;;;;;;11.00;6.97;;;13.70;99.90;;;13.99;75.00;94780.81;5074376;28;20499;-71
2023/05/21 03:51:34;;;;;;;16.50;6.53;;;13.80;99.90;;;14.07;75.09;94787.13;5077213;28;20477;-63
2023/05/21 03:54:02;;;;;;;9.00;6.40;;;13.80;99.90;;;14.11;74.67;94789.28;5078377;28;20872;-61
2023/05/21 03:56:30;;;;;;;12.50;7.33;;;13.90;99.90;;;14.15;75.00;94784.47;5074014;28;21017;-71
2023/05/21 03:58:57;;;;;;;9.10;6.40;;;13.90;99.90;;;14.21;74.47;94777.72;5074465;28;20459;-62
2023/05/21 04:01:24;;;;;;;18.23;8.03;;;14.00;99.90;;;14.24;74.52;94788.78;5073522;28;20482;-61
2023/05/21 04:03:52;;;;;;;13.90;6.73;;;14.00;99.90;;;14.29;74.40;94778.53;5069967;28;20464;-71
2023/05/21 04:06:19;;;;;;;13.17;7.40;;;14.00;99.90;;;14.33;74.26;94781.69;5075005;28;20928;-62
2023/05/21 04:08:47;;;;;;;12.60;8.40;;;14.10;99.90;;;14.34;74.11;94781.53;5069855;28;20489;-63
2023/05/21 04:11:15;;;;;;;17.23;7.70;;;14.10;99.90;;;14.39;74.44;94782.84;5077085;28;20488;-62
2023/05/21 04:13:43;;;;;;;18.57;7.20;;;14.20;99.90;;;14.41;74.07;94779.03;5071698;28;20459;-70
2023/05/21 04:16:13;;;;;;;8.70;6.33;;;14.20;99.90;;;14.45;73.87;94780.38;5073191;28;21025;-71
2023/05/21 04:18:41;;;;;;;9.60;6.93;;;14.20;99.90;;;14.50;73.99;94777.19;5077979;28;20517;-64
2023/05/21 04:21:08;;;;;;;13.77;6.60;;;14.20;99.90;;;14.57;73.99;94782.69;5076754;28;20503;-72
2023/05/21 04:23:36;;;;;;;14.50;7.60;;;14.30;99.90;;;14.63;74.25;94782.03;5077658;28;20487;-61
2023/05/21 04:26:03;;;;;;;16.63;8.20;;;14.40;99.90;;;14.72;74.34;94774.91;5072769;28;20524;-62
2023/05/21 04:28:32;;;;;;;10.07;7.33;;;14.40;99.90;;;14.79;74.62;94783.84;5076752;28;20547;-62
2023/05/21 04:30:59;;;;;;;23.40;8.00;;;14.50;99.90;;;14.86;74.17;94784.81;5071243;28;20592;-71
2023/05/21 04:33:27;;;;;;;13.20;8.03;;;14.60;99.90;;;14.94;74.40;94778.69;5073452;28;20462;-72
2023/05/21 04:35:56;;;;;;;12.57;8.70;;;14.70;99.90;;;15.00;73.98;94792.06;5078679;28;20473;-72
2023/05/21 04:38:24;;;;;;;24.83;8.10;;;14.70;99.90;;;15.06;74.08;94774.69;5072670;28;20506;-69
2023/05/21 04:40:52;;;;;;;12.63;7.37;;;14.80;99.90;;;15.13;73.93;94780.94;5075426;28;20603;-62
2023/05/21 04:43:24;;;;;;;8.40;7.60;;;14.90;99.90;;;15.20;74.15;94773.97;5076475;28;20458;-63
2023/05/21 04:45:53;;;;;;;9.60;7.50;;;14.90;99.90;;;15.29;74.03;94787.19;5072357;28;20447;-63
2023/05/21 04:48:21;;;;;;;15.60;7.87;;;15.00;99.90;;;15.36;74.38;94782.84;5070488;28;20458;-62
2023/05/21 04:50:49;;;;;;;12.60;7.93;;;15.10;99.90;;;15.44;74.05;94782.81;5070094;28;20462;-63
2023/05/21 04:53:17;;;;;;;17.07;8.03;;;15.20;99.90;;;15.53;73.83;94786.28;5071846;28;20455;-62
2023/05/21 04:55:45;;;;;;;12.90;7.93;;;15.20;99.90;;;15.63;73.85;94786.91;5076050;28;20454;-62
2023/05/21 04:58:13;;;;;;;15.60;7.93;;;15.30;99.90;;;15.72;73.52;94777.06;5076247;28;20581;-62
2023/05/21 05:00:44;;;;;;;11.27;7.20;;;15.40;99.90;;;15.83;73.39;94791.78;5074190;28;20634;-66
2023/05/21 05:03:13;;;;;;;10.53;8.30;;;15.50;99.90;;;15.92;73.20;94788.09;5070538;28;20455;-68
2023/05/21 05:05:43;;;;;;;11.33;7.90;;;15.60;99.90;;;16.01;72.92;94789.69;5068658;28;20458;-63
2023/05/21 05:08:11;;;;;;;28.30;10.70;;;15.70;99.90;;;16.11;72.75;94787.66;5068246;28;20485;-62
2023/05/21 05:10:38;;;;;;;13.03;8.37;;;15.80;99.90;;;16.19;72.29;94788.56;5070808;28;20643;-69
2023/05/21 05:13:06;;;;;;;20.47;8.43;;;15.90;99.90;;;16.27;72.13;94791.19;5079049;28;20486;-66
2023/05/21 05:15:33;;;;;;;12.77;8.60;;;16.00;99.90;;;16.35;71.70;94783.16;5067804;28;20560;-63
2023/05/21 05:18:00;;;;;;;21.00;9.10;;;16.10;99.90;;;16.44;71.16;94782.09;5067381;28;20494;-67
2023/05/21 05:20:29;;;;;;;10.27;7.60;;;16.20;99.90;;;16.54;70.88;94783.69;5074435;28;20456;-68
2023/05/21 05:22:56;;;;;;;12.50;6.80;;;16.20;99.90;;;16.70;70.21;94790.69;5067894;28;20591;-62
2023/05/21 05:25:24;;;;;;;9.40;6.73;;;16.40;99.90;;;16.80;69.62;94786.75;5074629;28;20515;-62
2023/05/21 05:27:52;;;;;;;13.23;6.93;;;16.50;99.90;;;16.93;69.26;94790.66;5073465;28;20482;-65
2023/05/21 05:30:20;;;;;;;12.00;7.30;;;16.60;99.90;;;17.04;69.18;94784.94;5070805;28;20490;-64
2023/05/21 05:32:47;;;;;;;13.00;6.43;;;16.70;99.90;;;17.15;68.66;94781.81;5066881;28;20481;-63
2023/05/21 05:35:14;;;;;;;12.90;7.30;;;16.80;99.90;;;17.25;68.51;94781.53;5070967;28;20592;-65
2023/05/21 05:37:43;;;;;;;11.93;7.30;;;16.90;99.90;;;17.37;67.82;94785.38;5070448;28;20502;-64
2023/05/21 05:40:11;;;;;;;16.50;6.10;;;17.00;99.90;;;17.48;67.66;94773.44;5076414;28;20970;-70
2023/05/21 05:42:38;;;;;;;13.20;6.53;;;17.10;99.90;;;17.60;67.11;94786.25;5068834;28;20467;-62
2023/05/21 05:45:07;;;;;;;8.60;6.03;;;17.30;99.90;;;17.73;67.28;94781.13;5071835;28;21023;-63
2023/05/21 05:47:34;;;;;;;6.13;5.47;;;17.40;99.90;;;17.88;66.21;94784.59;5070162;28;20478;-64
2023/05/21 05:50:02;;;;;;;10.73;6.20;;;17.50;99.90;;;17.99;65.73;94783.31;5073277;28;20862;-64
2023/05/21 05:52:29;;;;;;;13.13;5.93;;;17.60;99.90;;;18.03;65.57;94775.75;5069516;28;21049;-62
2023/05/21 05:54:58;;;;;;;9.80;5.63;;;17.70;99.90;;;18.08;65.76;94779.50;5069124;28;20454;-62
2023/05/21 05:57:25;;;;;;;11.13;5.57;;;17.70;99.90;;;18.15;65.54;94771.59;5070903;28;20474;-61
2023/05/21 05:59:52;;;;;;;8.53;6.07;;;17.80;99.90;;;18.21;65.56;94778.00;5071153;28;21210;-68
2023/05/21 06:02:19;;;;;;;6.30;5.70;;;17.90;99.90;;;18.24;65.37;94773.13;5073398;28;20483;-67
2023/05/21 06:04:47;;;;;;;6.27;5.70;;;17.90;99.90;;;18.26;64.88;94776.44;5073249;28;20544;-72
2023/05/21 06:07:15;;;;;;;10.10;5.20;;;18.00;99.90;;;18.31;64.85;94777.69;5067760;28;20602;-70
2023/05/21 06:09:42;;;;;;;14.80;6.07;;;18.00;99.90;;;18.36;64.97;94776.09;5075248;28;20490;-62
2023/05/21 06:12:14;;;;;;;6.10;5.50;;;18.00;99.90;;;18.44;64.38;94772.50;5079813;28;20986;-71
2023/05/21 06:14:42;;;;;;;7.03;5.77;;;18.10;99.90;;;18.59;64.23;94775.06;5078683;28;20433;-68
2023/05/21 06:17:09;;;;;;;13.47;6.37;;;18.20;99.90;;;18.77;63.48;94767.44;5075634;28;20702;-67
2023/05/21 06:19:36;;;;;;;10.87;6.30;;;18.40;99.90;;;18.95;63.19;94764.31;5078128;28;20502;-64
2023/05/21 06:22:03;;;;;;;11.63;5.30;;;18.50;99.90;;;19.12;63.20;94761.38;5073272;28;20502;-62
2023/05/21 06:24:31;;;;;;;9.00;5.50;;;18.70;99.90;;;19.26;62.70;94757.75;5073382;28;20454;-61
2023/05/21 06:26:58;;;;;;;9.40;5.00;;;18.90;99.90;;;19.37;62.60;94760.91;5076599;28;20486;-68
2023/05/21 06:29:27;;;;;;;6.60;5.10;;;19.00;99.90;;;19.47;61.42;94756.00;5079925;28;20486;-60
2023/05/21 06:31:54;;;;;;;7.57;5.80;;;19.10;99.90;;;19.65;61.14;94758.97;5077240;28;20478;-68
2023/05/21 06:34:22;;;;;;;10.43;5.97;;;19.20;99.90;;;19.88;60.83;94758.69;5080896;28;20451;-64
2023/05/21 06:36:49;;;;;;;10.47;6.30;;;19.40;99.90;;;20.10;59.85;94761.19;5077851;28;20477;-67
2023/05/21 06:39:16;;;;;;;9.30;5.63;;;19.70;99.90;;;20.25;59.52;94758.38;5072911;28;20509;-62
2023/05/21 06:41:44;;;;;;;11.63;6.47;;;19.80;99.90;;;20.32;59.16;94747.69;5079272;28;20477;-63
2023/05/21 06:44:11;;;;;;;16.63;6.77;;;19.90;99.90;;;20.42;59.10;94748.94;5073570;28;20466;-62
2023/05/21 06:46:40;;;;;;;7.57;5.60;;;20.00;99.90;;;20.58;58.65;94746.91;5076363;28;20864;-62
2023/05/21 06:49:07;;;;;;;9.83;5.40;;;20.20;99.40;;;20.76;58.19;94733.78;5080172;28;20482;-67
2023/05/21 06:51:34;;;;;;;12.77;5.83;;;20.30;99.40;;;20.98;57.38;94740.75;5073251;28;20488;-61
2023/05/21 06:54:02;;;;;;;10.33;7.03;;;20.50;98.80;;;21.19;57.62;94728.97;5073208;28;20520;-70
2023/05/21 06:56:29;;;;;;;7.57;6.63;;;20.70;99.00;;;21.34;57.02;94739.44;5072919;28;20888;-62
2023/05/21 06:58:56;;;;;;;18.53;7.07;;;20.90;98.30;;;21.44;56.61;94740.66;5070007;28;20486;-60
2023/05/21 07:01:24;;;;;;;21.40;12.33;;;21.10;98.00;;;21.59;56.21;94745.75;5075552;28;20880;-62
2023/05/21 07:03:53;;;;;;;19.13;6.33;;;21.20;97.70;;;21.69;55.73;94744.50;5076251;28;21133;-62
2023/05/21 07:06:21;;;;;;;12.20;6.73;;;21.30;97.20;;;21.79;54.88;94737.66;5074856;28;20497;-62
2023/05/21 07:08:48;;;;;;;9.43;6.90;;;21.40;96.50;;;21.99;54.84;94739.41;5076605;28;20481;-62
2023/05/21 07:11:16;;;;;;;11.40;5.50;;;21.50;96.50;;;22.16;54.41;94731.72;5074211;28;20551;-61
2023/05/21 07:13:43;;;;;;;13.73;5.83;;;21.70;96.00;;;22.36;53.68;94736.97;5077427;28;21131;-62
2023/05/21 07:16:11;;;;;;;8.37;7.00;;;21.90;95.60;;;22.56;52.86;94732.28;5075711;28;21013;-68
2023/05/21 07:18:38;;;;;;;18.23;13.83;;;22.10;94.90;;;22.74;51.21;94725.31;5077610;28;20493;-63
2023/05/21 07:21:07;;;;;;;15.40;8.67;;;22.30;93.50;;;22.77;52.24;94727.56;5073845;28;20508;-69
2023/05/21 07:23:34;;;;;;;19.97;5.70;;;22.40;93.50;;;22.82;51.11;94721.56;5074918;28;20462;-69
2023/05/21 07:26:01;;;;;;;9.87;6.10;;;22.40;92.80;;;22.89;50.93;94725.00;5072544;28;20485;-70
2023/05/21 07:28:29;;;;;;;13.70;7.13;;;22.50;92.60;;;22.95;50.06;94740.22;5073303;28;20451;-69
2023/05/21 07:30:56;;;;;;;13.27;6.57;;;22.60;91.80;;;23.06;49.91;94730.63;5076145;28;20466;-61
2023/05/21 07:33:23;;;;;;;7.87;5.90;;;22.60;91.20;;;23.20;49.10;94732.16;5076114;28;20465;-72
2023/05/21 07:35:51;;;;;;;8.70;4.83;;;22.80;90.50;;;23.40;48.67;94734.63;5073094;28;20465;-72
2023/05/21 07:38:19;;;;;;;9.93;4.97;;;22.90;90.00;;;23.63;49.42;94733.16;5073908;28;20490;-69
2023/05/21 07:40:47;;;;;;;22.83;5.90;;;23.10;90.70;;;23.85;49.39;94730.84;5071491;28;20465;-70
2023/05/21 07:43:14;;;;;;;9.37;5.03;;;23.40;90.30;;;24.11;47.57;94739.63;5074825;28;20461;-61
2023/05/21 07:45:42;;;;;;;6.90;4.47;;;23.60;88.50;;;24.32;47.75;94730.22;5081852;28;21016;-63
2023/05/21 07:48:10;;;;;;;10.50;4.70;;;23.80;86.80;;;24.37;46.72;94734.91;5074477;28;21400;-70
2023/05/21 07:50:37;;;;;;;10.60;4.87;;;24.00;83.80;;;24.42;46.51;94726.97;5073350;28;20511;-61
2023/05/21 07:53:05;;;;;;;6.27;5.23;;;24.00;84.00;;;24.57;46.46;94729.22;5073610;28;20481;-72
2023/05/21 07:55:33;;;;;;;18.20;5.90;;;24.10;83.30;;;24.68;46.27;94729.28;5074677;28;20463;-65
2023/05/21 07:58:01;;;;;;;8.50;5.73;;;24.20;81.80;;;24.74;45.37;94729.41;5075688;28;20501;-61
2023/05/21 08:00:28;;;;;;;11.30;5.33;;;24.30;80.20;;;24.72;44.42;94739.56;5076833;28;20459;-69
2023/05/21 08:02:56;;;;;;;7.73;5.20;;;24.30;78.40;;;24.66;44.72;94728.72;5080954;28;20489;-69
2023/05/21 08:05:24;;;;;;;9.63;4.90;;;24.30;77.90;;;24.68;44.45;94729.28;5071244;28;20523;-64
2023/05/21 08:07:51;;;;;;;13.73;5.17;;;24.30;76.20;;;24.64;42.87;94725.41;5077498;28;20512;-61
2023/05/21 08:10:19;;;;;;;12.07;4.90;;;24.30;74.40;;;24.64;43.46;94725.41;5076475;28;20460;-72
2023/05/21 08:12:47;;;;;;;7.80;4.40;;;24.30;74.60;;;24.82;44.15;94732.59;5077365;28;20470;-61
2023/05/21 08:15:15;;;;;;;8.90;4.97;;;24.40;74.90;;;25.03;43.69;94731.16;5074503;28;20954;-62
2023/05/21 08:17:42;;;;;;;4.87;3.90;;;24.50;75.10;;;25.08;44.07;94724.28;5075089;28;20470;-62
2023/05/21 08:20:12;;;;;;;8.20;4.70;;;24.60;74.90;;;25.06;40.93;94732.59;5076225;28;20844;-70
2023/05/21 08:22:40;;;;;;;4.90;4.10;;;24.60;69.40;;;25.00;42.92;94731.66;5072398;28;20469;-69
2023/05/21 08:25:09;;;;;;;11.20;4.90;;;24.60;71.70;;;25.03;42.53;94733.88;5073307;28;20477;-63
2023/05/21 08:27:36;;;;;;;5.60;4.83;;;24.60;71.60;;;25.12;42.78;94726.28;5072900;28;20542;-69
2023/05/21 08:30:06;;;;;;;4.83;4.33;;;24.60;71.50;;;25.26;41.60;94724.16;5068635;28;20462;-61
2023/05/21 08:32:34;;;;;;;8.93;4.10;;;24.80;69.70;;;25.41;40.15;94719.13;5071127;28;20477;-71
2023/05/21 08:35:01;;;;;;;8.23;3.83;;;24.90;67.10;;;25.59;39.53;94725.44;5067596;28;20469;-62
2023/05/21 08:37:29;;;;;;;15.53;4.20;;;25.10;65.20;;;25.62;39.85;94730.34;5071568;28;20462;-61
2023/05/21 08:39:56;;;;;;;4.60;3.30;;;25.20;64.70;;;25.61;38.36;94733.28;5075403;28;20496;-62
2023/05/21 08:42:30;;;;;;;5.07;4.20;;;25.20;61.20;;;25.37;36.76;94723.34;5072792;28;21123;-62
2023/05/21 08:44:59;;;;;;;7.23;4.40;;;25.10;58.70;;;25.15;37.23;94736.56;5079563;28;20450;-73
2023/05/21 08:47:28;;;;;;;6.50;3.27;;;24.80;58.40;;;24.91;37.06;94724.16;5077157;28;20490;-74
2023/05/21 08:49:55;;;;;;;12.30;4.97;;;24.70;57.30;;;24.76;36.97;94717.38;5071095;28;20516;-71
2023/05/21 08:52:22;;;;;;;12.00;4.60;;;24.50;58.30;;;24.79;36.11;94716.09;5077933;28;20474;-63
2023/05/21 08:54:51;;;;;;;11.90;4.13;;;24.50;57.20;;;24.90;36.90;94717.97;5072308;28;20458;-59
2023/05/21 08:57:18;;;;;;;5.40;3.80;;;24.50;57.50;;;25.12;37.03;94722.78;5073569;28;20462;-74
2023/05/21 08:59:46;;;;;;;6.60;3.50;;;24.60;57.40;;;25.41;37.08;94716.44;5074866;28;20486;-60
2023/05/21 09:02:14;;;;;;;13.67;3.60;;;24.90;57.90;;;25.76;36.51;94717.41;5071098;28;20477;-74
2023/05/21 09:04:47;;;;;;;13.47;4.30;;;25.20;57.20;;;26.09;35.62;94714.06;5071469;28;20462;-61
2023/05/21 09:07:14;;;;;;;4.93;3.83;;;25.50;56.30;;;26.29;34.56;94718.22;5075452;28;20518;-61
2023/05/21 09:09:46;;;;;;;10.13;3.90;;;25.70;54.50;;;26.40;34.88;94713.78;5075378;28;20933;-72
2023/05/21 09:12:14;;;;;;;6.63;4.60;;;25.90;54.40;;;26.62;35.13;94712.03;5076029;28;20496;-74
2023/05/21 09:14:41;;;;;;;9.40;3.93;;;26.10;54.80;;;26.87;34.71;94716.25;5077482;28;20458;-61
2023/05/21 09:17:08;;;;;;;12.83;4.57;;;26.30;54.20;;;27.07;34.45;94718.44;5076075;28;20903;-73
2023/05/21 09:19:36;;;;;;;6.63;4.50;;;26.60;53.40;;;27.14;34.18;94720.97;5075273;28;20565;-61
2023/05/21 09:22:05;;;;;;;5.70;3.80;;;26.60;52.80;;;27.06;32.83;94716.78;5075606;28;20466;-60
2023/05/21 09:24:32;;;;;;;10.33;3.20;;;26.60;51.80;;;26.90;32.92;94715.75;5075909;28;20454;-61
2023/05/21 09:26:59;;;;;;;8.00;4.07;;;26.60;51.40;;;26.87;33.29;94715.44;5073312;28;20471;-60
2023/05/21 09:29:27;;;;;;;17.03;9.00;;;26.50;51.90;;;26.79;32.96;94720.16;5075222;28;21214;-61
2023/05/21 09:31:54;;;;;;;6.90;4.20;;;26.40;51.40;;;26.46;33.31;94719.06;5073529;28;20470;-71
2023/05/21 09:34:22;;;;;;;5.97;4.50;;;26.10;50.90;;;26.32;34.24;94725.81;5072169;28;20446;-61
2023/05/21 09:36:50;;;;;;;9.70;3.67;;;26.00;52.20;;;26.09;33.70;94719.47;5073962;28;20473;-61
2023/05/21 09:39:29;;;;;;;5.57;4.10;;;25.80;51.50;;;26.00;34.07;94715.50;5075886;28;20520;-73
2023/05/21 09:41:57;;;;;;;4.30;3.87;;;25.70;52.20;;;26.17;34.81;94695.88;5074864;28;20498;-66
2023/05/21 09:44:24;;;;;;;13.27;4.10;;;25.70;53.30;;;26.44;34.84;94704.16;5074053;28;20453;-61
2023/05/21 09:46:57;;;;;;;8.63;4.40;;;25.90;53.70;;;26.69;34.37;94711.91;5076349;28;20576;-60
2023/05/21 09:49:25;;;;;;;12.83;6.70;;;26.10;52.70;;;26.71;33.71;94698.16;5075061;28;21022;-61
2023/05/21 09:51:55;;;;;;;5.20;4.27;;;26.20;51.60;;;26.60;33.37;94706.06;5071283;28;20482;-59
2023/05/21 09:54:23;;;;;;;9.13;4.00;;;26.20;50.60;;;26.47;33.52;94704.47;5076405;28;20446;-60
2023/05/21 09:56:53;;;;;;;8.03;4.10;;;26.10;51.20;;;26.33;33.57;94695.06;5072416;28;20527;-60
2023/05/21 09:59:20;;;;;;;13.00;4.60;;;26.00;51.10;;;26.22;32.87;94699.47;5075922;28;21096;-72
2023/05/21 10:01:50;;;;;;;5.10;3.80;;;25.90;50.10;;;26.09;33.80;94681.72;5070316;28;20477;-70
2023/05/21 10:04:17;;;;;;;13.47;8.23;;;25.80;51.10;;;26.04;33.95;94695.13;5072082;28;20450;-59
2023/05/21 10:06:46;;;;;;;7.97;5.27;;;25.70;51.30;;;26.01;34.15;94683.97;5067895;28;20466;-61
2023/05/21 10:09:15;;;;;;;8.90;4.20;;;25.70;51.60;;;26.03;33.74;94681.88;5078724;28;20527;-59
2023/05/21 10:11:44;;;;;;;8.27;4.63;;;25.60;51.30;;;26.11;34.17;94685.00;5083011;28;20473;-70
2023/05/21 10:14:16;;;;;;;5.67;3.77;;;25.70;51.90;;;26.31;33.26;94686.41;5075133;28;20469;-71
2023/05/21 10:16:43;;;;;;;11.37;4.40;;;25.80;51.10;;;26.38;33.65;94687.06;5073527;28;20478;-70
2023/05/21 10:19:11;;;;;;;16.50;10.27;;;25.90;51.10;;;26.59;33.86;94680.16;5075334;28;20493;-59